»·PEaware :: N122G KOLS-KPHX

N122G :: KOLS-KPHX

FLIGHT INFORMATION

Flight Status: Arrived
Operator: Privately registered:
United States
More flights under this callsign
Pilot: Ryan L. (28399)
Aircraft: CESSNA 510 CITATION MUSTANG
(C510)
More flights by this aircraft type
Origin: KOLS Nogales Intl
United States
Destination: KPHX Phoenix Sky Harbor Intl
United States
More flights between these airports :: More routes between these airports
Route: TUS V105 PXR
File this flight plan on PilotEdge
Remarks:
Altitude:
(Current/Filed)
22,000ft
Speed:
(Current/Filed)
375kts
Departed: 02-Oct-20 11:30 AM
Arrived: 02-Oct-20 12:04 PM
Distance/Time
Traveled:
134nm/0:34
Distance/Time
To Go:
Arrived

Flight Plot

Page will automatically refresh every two minutes.

Flight plan parsing failed; only flown route is shown


Map Options




Map Legend


Flown Route
Filed Route
Departure Airport
Arrival Airport
Navaid (VOR, NDB)
Fix

Horizontal Profiles

Position Reports

Time Latitude Longitude Heading Altitude Ground
Speed
02-Oct-20 11:09 31.418319 -110.849748 44 3960ft 0kts
02-Oct-20 11:10 31.418319 -110.849748 44 3960ft 0kts
02-Oct-20 11:11 31.418319 -110.849748 44 3960ft 0kts
02-Oct-20 11:11 31.418319 -110.849748 44 3960ft 0kts
02-Oct-20 11:12 31.418319 -110.849748 44 3960ft 0kts
02-Oct-20 11:14 31.418319 -110.849748 44 3960ft 0kts
02-Oct-20 11:14 31.418319 -110.849748 44 3960ft 0kts
02-Oct-20 11:15 31.418319 -110.849748 44 3960ft 0kts
02-Oct-20 11:16 31.418319 -110.849748 44 3960ft 0kts
02-Oct-20 11:17 31.418319 -110.849748 44 3960ft 0kts
02-Oct-20 11:18 31.418319 -110.849748 44 3960ft 0kts
02-Oct-20 11:19 31.418319 -110.849748 44 3960ft 0kts
02-Oct-20 11:20 31.418319 -110.849748 44 3960ft 0kts
02-Oct-20 11:21 31.418319 -110.849748 44 3960ft 0kts
02-Oct-20 11:22 31.418319 -110.849748 44 3960ft 0kts
02-Oct-20 11:23 31.418319 -110.849748 44 3960ft 0kts
02-Oct-20 11:24 31.418319 -110.849748 44 3960ft 0kts
02-Oct-20 11:25 31.418319 -110.849748 44 3960ft 0kts
02-Oct-20 11:26 31.419031 -110.848058 44 3960ft 18kts
02-Oct-20 11:27 31.422749 -110.843061 118 3960ft 0kts
02-Oct-20 11:28 31.422748 -110.843059 118 3960ft 0kts
02-Oct-20 11:29 31.413350 -110.853310 227 4029ft 137kts
02-Oct-20 11:30 31.422085 -110.886404 9 6860ft 182kts
02-Oct-20 11:31 31.480015 -110.879225 343 9491ft 240kts
02-Oct-20 11:32 31.546433 -110.910923 337 12072ft 275kts
02-Oct-20 11:33 31.619338 -110.945428 337 14596ft 290kts
02-Oct-20 11:34 31.695331 -110.979891 350 16694ft 310kts
02-Oct-20 11:35 31.789566 -110.965178 7 16590ft 364kts
02-Oct-20 11:36 31.891918 -110.948365 7 16510ft 370kts
02-Oct-20 11:37 31.991634 -110.931960 7 16512ft 356kts
02-Oct-20 11:38 32.088758 -110.926161 334 16491ft 351kts
02-Oct-20 11:39 32.146777 -111.018252 300 16504ft 364kts
02-Oct-20 11:40 32.199460 -111.123587 300 16490ft 374kts
02-Oct-20 11:41 32.249849 -111.226654 299 16469ft 353kts
02-Oct-20 11:42 32.297584 -111.327309 299 16454ft 348kts
02-Oct-20 11:43 32.346393 -111.425748 302 16445ft 347kts
02-Oct-20 11:44 32.406805 -111.514126 325 15935ft 359kts
02-Oct-20 11:45 32.490177 -111.582197 325 14940ft 356kts
02-Oct-20 11:46 32.566985 -111.645297 325 13903ft 326kts
02-Oct-20 11:47 32.638332 -111.704054 324 12371ft 302kts
02-Oct-20 11:48 32.703356 -111.757669 324 10544ft 256kts
02-Oct-20 11:49 32.756740 -111.801749 324 10551ft 221kts
02-Oct-20 11:50 32.806235 -111.842720 324 10553ft 211kts
02-Oct-20 11:51 32.856845 -111.884699 324 10558ft 232kts
02-Oct-20 11:52 32.916697 -111.912115 353 10560ft 244kts
02-Oct-20 11:53 32.982164 -111.919461 353 10551ft 227kts
02-Oct-20 11:54 33.046406 -111.926554 352 8817ft 238kts
02-Oct-20 11:55 33.114267 -111.934156 352 6407ft 233kts
02-Oct-20 11:56 33.177998 -111.941486 352 4548ft 245kts
02-Oct-20 11:57 33.240610 -111.948497 352 4531ft 209kts
02-Oct-20 11:58 33.301436 -111.955404 353 4520ft 207kts
02-Oct-20 11:59 33.347304 -111.984848 321 4526ft 186kts
02-Oct-20 12:00 33.388588 -112.022623 321 4233ft 189kts
02-Oct-20 12:01 33.418695 -112.065230 0 2672ft 118kts
02-Oct-20 12:02 33.428853 -112.030930 90 1235ft 110kts
02-Oct-20 12:03 33.428002 -112.016753 196 1137ft 0kts

Navigation Log

Ident Type
Flight plan parsing failed, navigation log unavailable